< < Back
Terminal Aerodrome Forecast


Current Version              Previous Versions:   1  2  3  4  5  6  7  8  9  

Terminal Aerodrome Forecast

544
FTUS42 KILM 301446 AAB
TAFFLO
TAF AMD
KFLO 301446Z 3015/3112 09010KT P6SM VCSH SCT030
      TEMPO 3015/3018 3SM SHRA BKN026
     FM301800 13009KT P6SM VCSH BKN035
      TEMPO 3018/3021 4SM SHRA BKN030
     FM310200 02005KT P6SM VCSH SCT015 OVC025=

Latest METAR

885
SAUS70 KWBC 310356
MTRFLO
METAR KFLO 310353Z AUTO 01004KT 10SM FEW029 FEW110 23/21 A2992 RMK AO2
SLP127 T02280211


USA.gov is the U.S. government's official web portal to all federal, state and local government web resources and services.